Messwerte Pereira

Temperatur

Temperatur
°C
1540177200 22.00 22.00 20
1540180800 23.00 23.00 20
1540184400 0.00 0.00 19
1540188000 1.00 1.00 19
1540191600 2.00 2.00 19
1540195200 3.00 3.00
1540198800 4.00 4.00
1540202400 5.00 5.00 19
1540206000 6.00 6.00 18
1540209600 7.00 7.00 19
1540213200 8.00 8.00 19
1540216800 9.00 9.00 22
1540220400 10.00 10.00 24
1540224000 11.00 11.00 24
1540227600 12.00 12.00 25
1540231200 13.00 13.00 26
1540234800 14.00 14.00 27
1540238400 15.00 15.00 26
1540242000 16.00 16.00
1540245600 17.00 17.00 24
1540249200 18.00 18.00 22
1540252800 19.00 19.00 20
1540256400 20.00 20.00 20
1540260000 21.00 21.00 20

Aktuellste Messwerte

Wettercharakter
Wetter: wechselnd bewölkt
Temperatur
20 °C
Feuchtigkeit
90 %
Wind
5 km/hWindrichtung: Ost
Luftdruck
1019 hPa
Messzeit: 22. Oktober 2018, 21.00Datenquelle: METAR

Weitere Messstationen in der Nähe

Messstation Temperatur Entfernung
Armenia 21 °C 36 km
Ibague 22 °C 77 km
Quibdó - 140 km
Rio Negro 15 °C 149 km
Medellín - 156 km
Cali 24 °C 158 km
Bogotá 14 °C 175 km

Wind

Windrichtung Böen Mittelwind
° km/h km/h
1540177200 22.00 21.00 - 22.00 120° 5
1540180800 23.00 22.00 - 23.00 70° 5
1540184400 0.00 23.00 - 0.00 60° 10
1540188000 1.00 0.00 - 1.00 60° 5
1540191600 2.00 1.00 - 2.00 40° 5
1540195200 3.00 2.00 - 3.00
1540198800 4.00 3.00 - 4.00
1540202400 5.00 4.00 - 5.00 120° 10
1540206000 6.00 5.00 - 6.00 0
1540209600 7.00 6.00 - 7.00 5
1540213200 8.00 7.00 - 8.00 5
1540216800 9.00 8.00 - 9.00 5
1540220400 10.00 9.00 - 10.00 320° 5
1540224000 11.00 10.00 - 11.00 220° 5
1540227600 12.00 11.00 - 12.00 150° 5
1540231200 13.00 12.00 - 13.00 270° 5
1540234800 14.00 13.00 - 14.00 270° 5
1540238400 15.00 14.00 - 15.00 240° 10
1540242000 16.00 15.00 - 16.00 270° 15
1540245600 17.00 16.00 - 17.00 310° 5
1540249200 18.00 17.00 - 18.00 320° 5
1540252800 19.00 18.00 - 19.00 260° 10
1540256400 20.00 19.00 - 20.00 5
1540260000 21.00 20.00 - 21.00 80° 5

Ihre Wetterstation

Fehlt Ihre Wetterstation auf unserem Portal?

Schreiben Sie an network@meteonews.ch

Klima

Wann ist es am wärmsten? Wann regnet es am wenigsten? Unsere Klimadaten geben Auskunft.